Pembina, North Dakota
Current Conditions -  °F | °C
As of 9:13 PM on Friday 21 Nov 2014 (Local Time) from KHCO Reporting Station
Clear Clear  
Wind Chill: 17°   Ceiling: Unl
Heat Index: 27°   Visibility: 10mi
Dew Point: 23°   Wind: 9mph
Humidity: 86%   Direction: 180°S
Pressure: 29.55"   Gusts: NA
Location:  48.97°N, 97.24°W
Report Text: KHCO 220313Z AUTO 18008KT 10SM CLR M03/M05 A2955 RMK AO2
Loading
Personal Weather Stations






























Interactive Weather Map New forecast layout! Learn more

10-Day Weather Forecast

Advertisements
Track Severe Weather on mobile